createdAt,value
2022-09-03T00:00:15.196Z,1110.72
2022-09-03T00:01:15.205Z,1110.73
2022-09-03T00:02:15.212Z,1110.46
2022-09-03T00:03:15.250Z,1110.27
2022-09-03T00:04:15.204Z,1109.91
2022-09-03T00:05:15.206Z,1109.62
2022-09-03T00:06:15.210Z,1109.22
2022-09-03T00:07:15.211Z,1108.82
2022-09-03T00:08:15.263Z,1108.28
2022-09-03T00:09:15.216Z,1107.79
2022-09-03T00:10:18.258Z,1107.36
2022-09-03T00:11:15.246Z,1106.77
2022-09-03T00:12:15.222Z,1106.6
2022-09-03T00:13:15.221Z,1106.05
2022-09-03T00:14:15.225Z,1105.7
2022-09-03T00:15:15.225Z,1105.29
2022-09-03T00:16:15.281Z,1105.41
2022-09-03T00:17:15.239Z,1104.97
2022-09-03T00:18:15.360Z,1104.82
2022-09-03T00:19:15.231Z,1104.79
2022-09-03T00:20:15.230Z,1104.49
2022-09-03T00:21:18.243Z,1104.3
2022-09-03T00:22:15.236Z,1103.89
2022-09-03T00:23:15.237Z,1103.68
2022-09-03T00:24:15.315Z,1103.2
2022-09-03T00:25:15.246Z,1102.63
2022-09-03T00:26:15.258Z,1102.18
2022-09-03T00:27:15.247Z,1101.88
2022-09-03T00:28:15.295Z,1101.75
2022-09-03T00:29:15.246Z,1101.39
2022-09-03T00:30:17.190Z,1100.99
2022-09-03T00:31:15.343Z,1100.68
2022-09-03T00:32:15.255Z,1100.31
2022-09-03T00:33:15.254Z,1100.2
2022-09-03T00:34:15.258Z,1099.72
2022-09-03T00:35:15.263Z,1099.68
2022-09-03T00:36:15.264Z,1099.5
2022-09-03T00:37:15.722Z,1099.35
2022-09-03T00:38:15.294Z,1099.29
2022-09-03T00:39:15.266Z,1098.88
2022-09-03T00:40:15.265Z,1098.5
2022-09-03T00:41:15.269Z,1098.53
2022-09-03T00:42:15.274Z,1098.34
2022-09-03T00:43:15.273Z,1097.76
2022-09-03T00:44:15.272Z,1097.61
2022-09-03T00:45:15.276Z,1097.38
2022-09-03T00:49:15.282Z,1096.54
2022-09-03T00:50:15.288Z,1096.21
2022-09-03T00:51:15.284Z,1096.02
2022-09-03T00:52:15.290Z,1095.81
2022-09-03T00:53:15.306Z,1095.32
2022-09-03T00:54:15.307Z,1095.25
2022-09-03T00:55:15.292Z,1094.85
2022-09-03T00:56:15.294Z,1094.46
2022-09-03T00:57:15.295Z,1094.09
2022-09-03T00:58:15.327Z,1093.76
2022-09-03T00:59:15.327Z,1093.64
2022-09-03T01:00:15.300Z,1093.28
2022-09-03T01:01:15.371Z,1093.17
2022-09-03T01:02:15.400Z,1092.78
2022-09-03T01:03:15.308Z,1092.34
2022-09-03T01:04:15.326Z,1092.41
2022-09-03T01:05:15.311Z,1091.83
2022-09-03T01:06:15.310Z,1091.53
2022-09-03T01:07:15.312Z,1091.21
2022-09-03T01:08:15.319Z,1090.88
2022-09-03T01:09:15.337Z,1090.63
2022-09-03T01:10:15.324Z,1090.13
2022-09-03T01:11:15.325Z,1089.81
2022-09-03T01:12:15.320Z,1089.13
2022-09-03T01:13:15.324Z,1089.25
2022-09-03T01:14:15.342Z,1089.14
2022-09-03T01:15:15.327Z,1088.89
2022-09-03T01:16:15.396Z,1088.51
2022-09-03T01:17:15.331Z,1088.37
2022-09-03T01:18:15.413Z,1088.23
2022-09-03T01:19:15.349Z,1087.94
2022-09-03T01:20:15.333Z,1087.84
2022-09-03T01:21:15.335Z,1088
2022-09-03T01:22:15.340Z,1087.87
2022-09-03T01:23:15.340Z,1088.07
2022-09-03T01:24:15.358Z,1088.2
2022-09-03T01:25:15.357Z,1088.16
2022-09-03T01:26:15.347Z,1087.99
2022-09-03T01:27:15.350Z,1087.46
2022-09-03T01:28:15.396Z,1087.03
2022-09-03T01:29:15.371Z,1086.57
2022-09-03T01:30:15.353Z,1086.06
2022-09-03T01:31:15.417Z,1085.41
2022-09-03T01:32:15.360Z,1085.64
2022-09-03T01:33:15.355Z,1085.28
2022-09-03T01:34:15.375Z,1085.1
2022-09-03T01:35:15.363Z,1085.17
2022-09-03T01:36:15.360Z,1085.08
2022-09-03T01:37:15.367Z,1084.86
2022-09-03T01:38:15.447Z,1084.86
2022-09-03T01:39:15.385Z,1084.68
2022-09-03T01:40:15.374Z,1084.43
2022-09-03T01:41:15.378Z,1084.39
2022-09-03T01:42:15.372Z,1083.91
2022-09-03T01:43:18.175Z,1083.92
2022-09-03T01:44:15.407Z,1083.77
2022-09-03T01:45:15.378Z,1083.69
2022-09-03T01:46:16.107Z,1083.45
2022-09-03T01:47:15.379Z,1083.31
2022-09-03T01:48:15.400Z,1083.36
2022-09-03T01:49:15.400Z,1082.93
2022-09-03T01:50:15.387Z,1082.38
2022-09-03T01:51:15.388Z,1082.19
2022-09-03T01:52:15.391Z,1081.87
2022-09-03T01:53:15.393Z,1081.55
2022-09-03T01:54:18.203Z,1080.93
2022-09-03T01:55:15.393Z,1080.55
2022-09-03T01:56:15.402Z,1080.07
2022-09-03T01:57:29.174Z,1079.41
2022-09-03T01:58:15.439Z,1079.13
2022-09-03T01:59:15.405Z,1078.83
2022-09-03T02:00:15.407Z,1078.71
2022-09-03T02:01:15.453Z,1078.35
2022-09-03T02:02:15.457Z,1078
2022-09-03T02:03:15.406Z,1077.67
2022-09-03T02:04:15.409Z,1077.61
2022-09-03T02:05:15.416Z,1077.18
2022-09-03T02:06:15.415Z,1077.14
2022-09-03T02:07:15.416Z,1077.26
2022-09-03T02:08:15.514Z,1077.13
2022-09-03T02:09:15.418Z,1076.25
2022-09-03T02:10:15.423Z,1076
2022-09-03T02:11:15.423Z,1075.26
2022-09-03T02:12:15.427Z,1074.68
2022-09-03T02:13:15.433Z,1074.27
2022-09-03T02:14:15.427Z,1073.66
2022-09-03T02:15:15.430Z,1073.54
2022-09-03T02:16:15.499Z,1073.15
2022-09-03T02:17:15.431Z,1072.95
2022-09-03T02:18:15.486Z,1073.29
2022-09-03T02:19:15.436Z,1073.02
2022-09-03T02:20:15.435Z,1073
2022-09-03T02:21:15.440Z,1072.69
2022-09-03T02:22:15.443Z,1072.52
2022-09-03T02:23:15.442Z,1072.33
2022-09-03T02:24:15.453Z,1072.03
2022-09-03T02:25:15.449Z,1071.58
2022-09-03T02:26:18.203Z,1071.15
2022-09-03T02:27:15.463Z,1070.55
2022-09-03T02:28:15.751Z,1070.01
2022-09-03T02:29:15.450Z,1070.13
2022-09-03T02:30:15.460Z,1070.19
2022-09-03T02:31:15.480Z,1069.77
2022-09-03T02:32:15.460Z,1069.77
2022-09-03T02:33:15.459Z,1069.66
2022-09-03T02:34:15.460Z,1069.55
2022-09-03T02:35:15.465Z,1069.41
2022-09-03T02:36:15.464Z,1068.79
2022-09-03T02:37:18.370Z,1068.27
2022-09-03T02:38:15.565Z,1067.85
2022-09-03T02:39:15.470Z,1067.75
2022-09-03T02:40:15.472Z,1067.1
2022-09-03T02:41:15.496Z,1066.57
2022-09-03T02:42:15.474Z,1066.05
2022-09-03T02:43:15.476Z,1065.88
2022-09-03T02:44:15.485Z,1065.47
2022-09-03T02:45:15.484Z,1065.26
2022-09-03T02:46:15.588Z,1065.24
2022-09-03T02:47:15.483Z,1064.38
2022-09-03T02:48:18.604Z,1064.87
2022-09-03T02:49:15.486Z,1064.35
2022-09-03T02:50:15.495Z,1064.06
2022-09-03T02:51:15.493Z,1063.34
2022-09-03T02:52:15.491Z,1062.91
2022-09-03T02:53:15.494Z,1062.81
2022-09-03T02:54:18.998Z,1062.67
2022-09-03T02:55:15.499Z,1062.79
2022-09-03T02:56:15.496Z,1062.75
2022-09-03T02:57:15.498Z,1062.57
2022-09-03T02:58:15.546Z,1062.51
2022-09-03T02:59:15.504Z,1062.53
2022-09-03T03:00:15.508Z,1062.36
2022-09-03T03:01:19.656Z,1062.65
2022-09-03T03:02:15.535Z,1062.55
2022-09-03T03:03:15.535Z,1062.59
2022-09-03T03:04:15.517Z,1062.51
2022-09-03T03:05:15.533Z,1062.35
2022-09-03T03:06:15.512Z,1061.9
2022-09-03T03:07:15.518Z,1062.2
2022-09-03T03:08:15.597Z,1062.37
2022-09-03T03:09:15.539Z,1062.56
2022-09-03T03:10:15.539Z,1062.77
2022-09-03T03:11:15.522Z,1062.82
2022-09-03T03:12:15.534Z,1062.79
2022-09-03T03:13:15.532Z,1062.77
2022-09-03T03:14:15.533Z,1062.86
2022-09-03T03:15:15.548Z,1062.87
2022-09-03T03:16:15.568Z,1062.99
2022-09-03T03:17:15.536Z,1062.94
2022-09-03T03:18:15.586Z,1062.62
2022-09-03T03:19:15.539Z,1062.99
2022-09-03T03:20:15.555Z,1062.65
2022-09-03T03:21:15.547Z,1062.62
2022-09-03T03:22:15.540Z,1062.31
2022-09-03T03:23:15.544Z,1062.35
2022-09-03T03:24:15.542Z,1062.32
2022-09-03T03:25:15.561Z,1061.89
2022-09-03T03:26:15.548Z,1062.12
2022-09-03T03:27:15.551Z,1062.3
2022-09-03T03:28:15.571Z,1062.15
2022-09-03T03:29:15.554Z,1062.09
2022-09-03T03:30:15.572Z,1061.9
2022-09-03T03:31:15.596Z,1061.78
2022-09-03T03:32:15.561Z,1062.02
2022-09-03T03:33:15.559Z,1061.8
2022-09-03T03:34:15.559Z,1061.72
2022-09-03T03:35:15.583Z,1061.83
2022-09-03T03:36:15.569Z,1061.88
2022-09-03T03:37:15.566Z,1061.83
2022-09-03T03:38:15.647Z,1061.74
2022-09-03T03:39:15.571Z,1061.69
2022-09-03T03:40:15.597Z,1061.64
2022-09-03T03:41:15.573Z,1061.43
2022-09-03T03:42:15.579Z,1061.39
2022-09-03T03:43:15.575Z,1060.89
2022-09-03T03:44:15.581Z,1060.51
2022-09-03T03:45:15.612Z,1060.75
2022-09-03T03:46:15.698Z,1060.63
2022-09-03T03:47:15.584Z,1060.61
2022-09-03T03:48:15.659Z,1060.7
2022-09-03T03:49:15.588Z,1060.97
2022-09-03T03:50:15.611Z,1060.75
2022-09-03T03:51:15.589Z,1061.24
2022-09-03T03:52:15.599Z,1061.15
2022-09-03T03:53:15.592Z,1061.31
2022-09-03T03:54:17.525Z,1061.17
2022-09-03T03:55:15.832Z,1061.28
2022-09-03T03:56:15.610Z,1061.57
2022-09-03T03:57:15.603Z,1061.25
2022-09-03T03:58:15.614Z,1061.44
2022-09-03T03:59:15.604Z,1061.09
2022-09-03T04:00:15.629Z,1060.55
2022-09-03T04:01:15.643Z,1060.46
2022-09-03T04:02:15.652Z,1060.38
2022-09-03T04:03:15.612Z,1059.89
2022-09-03T04:04:15.610Z,1059.97
2022-09-03T04:05:15.631Z,1059.78
2022-09-03T04:06:15.616Z,1059.3
2022-09-03T04:07:15.615Z,1058.81
2022-09-03T04:08:15.688Z,1058.65
2022-09-03T04:09:15.622Z,1058.28
2022-09-03T04:10:16.961Z,1058.66
2022-09-03T04:11:15.624Z,1058.56
2022-09-03T04:12:15.626Z,1058.59
2022-09-03T04:13:15.630Z,1058.57
2022-09-03T04:14:15.629Z,1058.69
2022-09-03T04:15:15.631Z,1058.83
2022-09-03T04:16:15.691Z,1058.58
2022-09-03T04:17:15.636Z,1058.51
2022-09-03T04:18:15.710Z,1058.6
2022-09-03T04:19:15.637Z,1058.51
2022-09-03T04:20:15.640Z,1058.17
2022-09-03T04:21:18.764Z,1057.74
2022-09-03T04:22:15.643Z,1057.54
2022-09-03T04:23:15.650Z,1057.78
2022-09-03T04:24:15.647Z,1057.89
2022-09-03T04:25:15.652Z,1057.78
2022-09-03T04:26:15.650Z,1057.77
2022-09-03T04:27:15.654Z,1057.64
2022-09-03T04:28:15.746Z,1057.74
2022-09-03T04:29:15.657Z,1057.54
2022-09-03T04:30:15.659Z,1057.51
2022-09-03T04:31:15.694Z,1057.25
2022-09-03T04:32:15.660Z,1057.31
2022-09-03T04:33:15.885Z,1057.02
2022-09-03T04:34:15.662Z,1056.83
2022-09-03T04:35:15.662Z,1056.22
2022-09-03T04:36:15.667Z,1056.02
2022-09-03T04:37:15.669Z,1056.13
2022-09-03T04:38:15.697Z,1056.07
2022-09-03T04:39:15.669Z,1056.27
2022-09-03T04:40:16.705Z,1056.11
2022-09-03T04:41:15.676Z,1055.9
2022-09-03T04:42:15.675Z,1055.91
2022-09-03T04:43:15.679Z,1056.28
2022-09-03T04:44:15.679Z,1056.08
2022-09-03T04:45:15.680Z,1056.23
2022-09-03T04:46:16.430Z,1055.78
2022-09-03T04:47:15.685Z,1055.95
2022-09-03T04:48:15.744Z,1055.78
2022-09-03T04:49:15.687Z,1055.76
2022-09-03T04:50:15.699Z,1055.94
2022-09-03T04:51:15.696Z,1056.14
2022-09-03T04:52:15.691Z,1056.19
2022-09-03T04:53:18.484Z,1056.49
2022-09-03T04:54:15.695Z,1056.76
2022-09-03T04:55:15.696Z,1056.95
2022-09-03T04:56:15.701Z,1057.22
2022-09-03T04:57:15.702Z,1057.58
2022-09-03T04:58:15.747Z,1057.98
2022-09-03T04:59:15.706Z,1058.39
2022-09-03T05:00:15.715Z,1058.1
2022-09-03T05:01:15.732Z,1058.8
2022-09-03T05:02:15.792Z,1059
2022-09-03T05:03:15.711Z,1059.22
2022-09-03T05:04:18.505Z,1059.64
2022-09-03T05:05:15.716Z,1059.63
2022-09-03T05:06:15.715Z,1059.61
2022-09-03T05:07:15.720Z,1059.7
2022-09-03T05:08:15.737Z,1059.82
2022-09-03T05:09:15.722Z,1060.52
2022-09-03T05:10:15.725Z,1060.75
2022-09-03T05:11:15.728Z,1061.1
2022-09-03T05:12:15.726Z,1061.8
2022-09-03T05:13:15.725Z,1062.08
2022-09-03T05:14:15.728Z,1062.51
2022-09-03T05:15:19.518Z,1063.4
2022-09-03T05:16:15.787Z,1063.84
2022-09-03T05:17:15.736Z,1064.06
2022-09-03T05:18:15.798Z,1064.92
2022-09-03T05:19:15.740Z,1065.23
2022-09-03T05:20:15.743Z,1065.83
2022-09-03T05:21:15.749Z,1066.36
2022-09-03T05:22:15.741Z,1066.83
2022-09-03T05:23:15.743Z,1067.32
2022-09-03T05:24:15.745Z,1068.01
2022-09-03T05:25:15.746Z,1068.7
2022-09-03T05:26:18.580Z,1069.41
2022-09-03T05:27:15.751Z,1069.97
2022-09-03T05:28:15.769Z,1070.08
2022-09-03T05:29:15.755Z,1070.51
2022-09-03T05:30:15.757Z,1071.2
2022-09-03T05:31:15.782Z,1071.72
2022-09-03T05:32:15.768Z,1072.51
2022-09-03T05:33:15.759Z,1073.03
2022-09-03T05:34:16.311Z,1073.69
2022-09-03T05:35:15.766Z,1074.05
2022-09-03T05:36:15.767Z,1074.89
2022-09-03T05:37:15.777Z,1075.24
2022-09-03T05:38:15.802Z,1075.89
2022-09-03T05:39:15.774Z,1076.64
2022-09-03T05:40:15.776Z,1077.2
2022-09-03T05:41:15.795Z,1078.2
2022-09-03T05:42:15.776Z,1078.75
2022-09-03T05:43:15.777Z,1079.59
2022-09-03T05:44:15.780Z,1080.34
2022-09-03T05:45:15.783Z,1080.98
2022-09-03T05:46:15.818Z,1081.87
2022-09-03T05:47:15.784Z,1082.52
2022-09-03T05:48:15.838Z,1083.25
2022-09-03T05:49:15.787Z,1083.79
2022-09-03T05:50:15.790Z,1084.68
2022-09-03T05:51:15.817Z,1085.4
2022-09-03T05:52:15.794Z,1086.33
2022-09-03T05:53:15.816Z,1087.45
2022-09-03T05:54:15.820Z,1088.32
2022-09-03T05:55:15.800Z,1089.26
2022-09-03T05:56:15.815Z,1090.25
2022-09-03T05:57:15.800Z,1090.88
2022-09-03T05:58:15.803Z,1091.7
2022-09-03T05:59:15.803Z,1092.47
2022-09-03T06:00:15.808Z,1093.22
2022-09-03T06:01:15.838Z,1094.06
2022-09-03T06:02:15.871Z,1094.58
2022-09-03T06:03:15.903Z,1095.15
2022-09-03T06:04:15.816Z,1095.64
2022-09-03T06:05:15.813Z,1096.14
2022-09-03T06:06:15.833Z,1096.65
2022-09-03T06:07:15.819Z,1096.81
2022-09-03T06:08:15.822Z,1097.34
2022-09-03T06:09:15.831Z,1097.66
2022-09-03T06:10:15.823Z,1098.08
2022-09-03T06:11:15.844Z,1098.91
2022-09-03T06:12:15.829Z,1099.67
2022-09-03T06:13:15.878Z,1100.78
2022-09-03T06:14:15.831Z,1102.06
2022-09-03T06:15:15.829Z,1103.72
2022-09-03T06:16:15.913Z,1105.54
2022-09-03T06:17:15.839Z,1106.85
2022-09-03T06:18:15.839Z,1107.95
2022-09-03T06:19:15.840Z,1109.4
2022-09-03T06:20:15.843Z,1110.83
2022-09-03T06:21:15.861Z,1112.21
2022-09-03T06:22:15.847Z,1113.11
2022-09-03T06:23:15.845Z,1114.08
2022-09-03T06:24:15.847Z,1115.25
2022-09-03T06:25:15.855Z,1116.26
2022-09-03T06:26:15.866Z,1116.53
2022-09-03T06:27:15.850Z,1117.15
2022-09-03T06:28:15.902Z,1117.49
2022-09-03T06:29:15.854Z,1117.76
2022-09-03T06:30:15.859Z,1117.86
2022-09-03T06:31:15.930Z,1117.78
2022-09-03T06:32:15.860Z,1117.86
2022-09-03T06:33:15.873Z,1117.92
2022-09-03T06:34:15.874Z,1117.67
2022-09-03T06:35:15.866Z,1117.69
2022-09-03T06:36:15.886Z,1117.56
2022-09-03T06:37:18.884Z,1117.18
2022-09-03T06:38:15.926Z,1117.01
2022-09-03T06:39:15.873Z,1116.79
2022-09-03T06:40:15.873Z,1116.68
2022-09-03T06:41:15.891Z,1116.56
2022-09-03T06:42:15.879Z,1116.51
2022-09-03T06:43:15.878Z,1116.46
2022-09-03T06:44:15.889Z,1116.45
2022-09-03T06:45:15.890Z,1116.44
2022-09-03T06:46:15.937Z,1116.45
2022-09-03T06:47:15.886Z,1116.74
2022-09-03T06:48:18.708Z,1117.1
2022-09-03T06:49:15.892Z,1117.6
2022-09-03T06:50:15.891Z,1118.67
2022-09-03T06:51:15.911Z,1120.13
2022-09-03T06:52:15.901Z,1120.79
2022-09-03T06:53:15.896Z,1120.89
2022-09-03T06:54:15.904Z,1121.25
2022-09-03T06:55:15.900Z,1121.45
2022-09-03T06:56:15.917Z,1121.71
2022-09-03T06:57:15.902Z,1121.85
2022-09-03T06:58:15.965Z,1122.18
2022-09-03T06:59:15.908Z,1122.34
2022-09-03T07:00:15.918Z,1122.63
2022-09-03T07:01:16.071Z,1122.76
2022-09-03T07:02:16.031Z,1122.99
2022-09-03T07:03:15.915Z,1123.38
2022-09-03T07:04:15.919Z,1123.81
2022-09-03T07:05:15.922Z,1124.21
2022-09-03T07:06:15.937Z,1124.65
2022-09-03T07:07:15.922Z,1125.79
2022-09-03T07:08:15.933Z,1126.28
2022-09-03T07:09:16.030Z,1126.76
2022-09-03T07:10:15.927Z,1127.9
2022-09-03T07:11:15.956Z,1128.78
2022-09-03T07:12:15.931Z,1129.25
2022-09-03T07:13:15.931Z,1129.64
2022-09-03T07:14:15.935Z,1129.74
2022-09-03T07:15:15.936Z,1129.5
2022-09-03T07:16:16.002Z,1129
2022-09-03T07:17:15.941Z,1128.25
2022-09-03T07:18:15.997Z,1127.4
2022-09-03T07:19:15.951Z,1126.31
2022-09-03T07:20:18.699Z,1124.77
2022-09-03T07:21:15.967Z,1123.13
2022-09-03T07:22:15.947Z,1121.38
2022-09-03T07:23:15.950Z,1119.92
2022-09-03T07:24:15.953Z,1118.83
2022-09-03T07:25:15.958Z,1118.43
2022-09-03T07:26:16.015Z,1116.62
2022-09-03T07:27:15.957Z,1114.83
2022-09-03T07:28:15.963Z,1112.86
2022-09-03T07:29:16.183Z,1112.01
2022-09-03T07:30:15.966Z,1111.87
2022-09-03T07:31:19.188Z,1112.17
2022-09-03T07:32:16.016Z,1112.36
2022-09-03T07:33:15.970Z,1113.11
2022-09-03T07:34:15.973Z,1113.67
2022-09-03T07:35:15.973Z,1114.28
2022-09-03T07:36:15.979Z,1115.05
2022-09-03T07:37:15.982Z,1115.89
2022-09-03T07:38:16.025Z,1116.5
2022-09-03T07:39:15.980Z,1117.24
2022-09-03T07:40:15.982Z,1118.25
2022-09-03T07:41:17.500Z,1119.24
2022-09-03T07:42:18.886Z,1120.24
2022-09-03T07:43:15.987Z,1120.97
2022-09-03T07:44:15.993Z,1121.89
2022-09-03T07:45:15.989Z,1122.69
2022-09-03T07:46:16.014Z,1123.36
2022-09-03T07:47:16.009Z,1123.9
2022-09-03T07:48:16.077Z,1124.46
2022-09-03T07:49:16.000Z,1124.9
2022-09-03T07:50:16.001Z,1125.37
2022-09-03T07:51:16.005Z,1125.62
2022-09-03T07:52:16.025Z,1126.03
2022-09-03T07:53:18.775Z,1126.1
2022-09-03T07:54:16.008Z,1126.3
2022-09-03T07:55:16.005Z,1126.24
2022-09-03T07:56:16.007Z,1125.77
2022-09-03T07:57:16.027Z,1124.91
2022-09-03T07:58:16.030Z,1123.84
2022-09-03T07:59:16.013Z,1122.29
2022-09-03T08:00:16.015Z,1120.25
2022-09-03T08:01:16.104Z,1118.06
2022-09-03T08:02:16.043Z,1115.75
2022-09-03T08:03:16.022Z,1113.03
2022-09-03T08:04:16.099Z,1110.41
2022-09-03T08:05:16.026Z,1107.88
2022-09-03T08:06:16.030Z,1104.96
2022-09-03T08:07:16.042Z,1103.16
2022-09-03T08:08:16.465Z,1101.63
2022-09-03T08:09:16.032Z,1098.79
2022-09-03T08:10:16.033Z,1097.04
2022-09-03T08:11:16.039Z,1094.66
2022-09-03T08:12:16.059Z,1090.99
2022-09-03T08:13:16.038Z,1087.34
2022-09-03T08:14:16.045Z,1083.48
2022-09-03T08:15:16.043Z,1078.95
2022-09-03T08:16:16.083Z,1075.01
2022-09-03T08:17:16.061Z,1076.32
2022-09-03T08:18:16.095Z,1076.45
2022-09-03T08:19:16.054Z,1075.85
2022-09-03T08:20:16.050Z,1073.57
2022-09-03T08:21:16.054Z,1073.23
2022-09-03T08:22:16.090Z,1071.28
2022-09-03T08:23:16.057Z,1069.92
2022-09-03T08:24:16.059Z,1069.13
2022-09-03T08:25:16.059Z,1069.77
2022-09-03T08:26:16.061Z,1069.31
2022-09-03T08:27:16.085Z,1064.69
2022-09-03T08:28:16.102Z,1063.21
2022-09-03T08:29:16.067Z,1064.72
2022-09-03T08:30:16.091Z,1066.35
2022-09-03T08:31:16.109Z,1067.73
2022-09-03T08:32:16.098Z,1069.46
2022-09-03T08:33:16.077Z,1070.7
2022-09-03T08:34:16.082Z,1072.25
2022-09-03T08:35:16.081Z,1073.76
2022-09-03T08:36:16.085Z,1075.37
2022-09-03T08:37:16.104Z,1077.25
2022-09-03T08:38:16.084Z,1079.1
2022-09-03T08:39:16.087Z,1080.7
2022-09-03T08:40:16.101Z,1082.09
2022-09-03T08:41:16.097Z,1083.33
2022-09-03T08:42:16.112Z,1084
2022-09-03T08:43:16.093Z,1085.09
2022-09-03T08:44:16.101Z,1085.61
2022-09-03T08:45:16.095Z,1086.15
2022-09-03T08:46:16.130Z,1086.33
2022-09-03T08:47:16.132Z,1086.78
2022-09-03T08:48:16.214Z,1086.48
2022-09-03T08:49:16.107Z,1086.57
2022-09-03T08:50:16.112Z,1086.48
2022-09-03T08:51:16.111Z,1086.28
2022-09-03T08:52:16.133Z,1085.58
2022-09-03T08:53:16.114Z,1085.06
2022-09-03T08:54:16.115Z,1083.78
2022-09-03T08:55:16.116Z,1082.42
2022-09-03T08:56:16.139Z,1080.69
2022-09-03T08:57:16.138Z,1078.13
2022-09-03T08:58:16.169Z,1074.13
2022-09-03T08:59:16.124Z,1070.88
2022-09-03T09:00:16.247Z,1064.96
2022-09-03T09:01:16.138Z,1058.09
2022-09-03T09:02:16.258Z,1055.64
2022-09-03T09:03:16.133Z,1052.06
2022-09-03T09:04:18.932Z,1046.97
2022-09-03T09:05:16.137Z,1043.07
2022-09-03T09:06:16.138Z,1042.73
2022-09-03T09:07:16.158Z,1042.94
2022-09-03T09:08:16.175Z,1043.21
2022-09-03T09:09:16.148Z,1041.9
2022-09-03T09:10:16.144Z,1040.16
2022-09-03T09:11:16.146Z,1038.27
2022-09-03T09:12:16.185Z,1036.97
2022-09-03T09:13:16.152Z,1036.23
2022-09-03T09:14:16.155Z,1036.27
2022-09-03T09:15:19.026Z,1035.96
2022-09-03T09:16:16.230Z,1035.3
2022-09-03T09:17:16.162Z,1034.55
2022-09-03T09:18:16.219Z,1032.02
2022-09-03T09:19:16.162Z,1028.96
2022-09-03T09:20:16.162Z,1025.43
2022-09-03T09:21:20.408Z,1022.32
2022-09-03T09:22:16.167Z,1018.94
2022-09-03T09:23:16.172Z,1014.97
2022-09-03T09:24:16.172Z,1010.71
2022-09-03T09:25:16.172Z,1007.62
2022-09-03T09:26:16.174Z,1004.56
2022-09-03T09:27:16.198Z,1000.98
2022-09-03T09:28:16.205Z,996.84
2022-09-03T09:29:16.178Z,992.28
2022-09-03T09:30:16.181Z,988.68
2022-09-03T09:31:16.238Z,985.23
2022-09-03T09:32:16.185Z,982.36
2022-09-03T09:33:16.192Z,976.28
2022-09-03T09:34:16.203Z,970.53
2022-09-03T09:35:16.188Z,965.44
2022-09-03T09:36:16.193Z,959.39
2022-09-03T09:37:16.196Z,952.97
2022-09-03T09:38:16.483Z,949.04
2022-09-03T09:39:16.198Z,946.26
2022-09-03T09:40:16.201Z,944.25
2022-09-03T09:41:16.199Z,943
2022-09-03T09:42:16.203Z,941.26
2022-09-03T09:43:16.250Z,939.56
2022-09-03T09:44:16.206Z,938.68
2022-09-03T09:45:16.210Z,937.15
2022-09-03T09:46:16.257Z,937.58
2022-09-03T09:47:19.333Z,937.24
2022-09-03T09:48:16.295Z,936.57
2022-09-03T09:49:16.241Z,935.16
2022-09-03T09:50:24.795Z,932.52
2022-09-03T09:51:16.220Z,929.98
2022-09-03T09:52:16.223Z,926.28
2022-09-03T09:53:16.235Z,928.76
2022-09-03T09:54:16.226Z,932.59
2022-09-03T09:55:16.228Z,934.75
2022-09-03T09:56:16.229Z,931.07
2022-09-03T09:57:16.230Z,927.18
2022-09-03T09:58:19.109Z,923.7
2022-09-03T09:59:16.238Z,921.13
2022-09-03T10:00:16.270Z,919.3
2022-09-03T10:01:16.255Z,917.4
2022-09-03T10:02:22.225Z,915.51
2022-09-03T10:03:16.347Z,912
2022-09-03T10:04:16.247Z,906.46
2022-09-03T10:05:16.244Z,901.57
2022-09-03T10:06:16.250Z,896.92
2022-09-03T10:07:16.252Z,891.77
2022-09-03T10:08:16.326Z,887.27
2022-09-03T10:09:19.385Z,883.31
2022-09-03T10:10:16.288Z,880.21
2022-09-03T10:11:16.259Z,878.12
2022-09-03T10:12:16.257Z,875.87
2022-09-03T10:13:16.290Z,873.23
2022-09-03T10:14:16.265Z,871.9
2022-09-03T10:15:16.266Z,870.48
2022-09-03T10:16:16.304Z,869.91
2022-09-03T10:17:16.267Z,867.13
2022-09-03T10:18:16.318Z,864.07
2022-09-03T10:19:16.279Z,861.13
2022-09-03T10:20:19.356Z,858.6
2022-09-03T10:21:16.287Z,856.3
2022-09-03T10:22:16.277Z,855.06
2022-09-03T10:23:16.301Z,853.31
2022-09-03T10:24:16.283Z,851.89
2022-09-03T10:25:16.283Z,849.33
2022-09-03T10:26:16.288Z,846.4
2022-09-03T10:27:16.288Z,842.58
2022-09-03T10:28:16.320Z,839.1
2022-09-03T10:29:16.297Z,836.88
2022-09-03T10:30:16.295Z,835.08
2022-09-03T10:31:16.443Z,832.79
2022-09-03T10:32:16.334Z,832.88
2022-09-03T10:33:16.324Z,832.83
2022-09-03T10:34:16.300Z,834.79
2022-09-03T10:35:16.305Z,839.9
2022-09-03T10:36:16.308Z,848.13
2022-09-03T10:37:16.307Z,855.75
2022-09-03T10:38:16.381Z,864.25
2022-09-03T10:39:16.310Z,871.32
2022-09-03T10:40:16.407Z,876.16
2022-09-03T10:41:16.315Z,880.4
2022-09-03T10:42:16.316Z,885
2022-09-03T10:43:16.337Z,891.74
2022-09-03T10:44:16.321Z,890.97
2022-09-03T10:45:16.323Z,888.17
2022-09-03T10:46:19.489Z,887.85
2022-09-03T10:47:16.326Z,890.06
2022-09-03T10:48:16.492Z,900.52
2022-09-03T10:49:16.333Z,909.34
2022-09-03T10:50:16.330Z,916.64
2022-09-03T10:51:16.332Z,922.59
2022-09-03T10:52:16.340Z,928.76
2022-09-03T10:53:16.358Z,936.12
2022-09-03T10:54:16.342Z,942.72
2022-09-03T10:55:16.350Z,948.25
2022-09-03T10:56:16.344Z,952.7
2022-09-03T10:57:16.344Z,953.43
2022-09-03T10:58:16.416Z,945.93
2022-09-03T10:59:16.356Z,939.93
2022-09-03T11:00:16.351Z,934.95
2022-09-03T11:01:16.386Z,936.08
2022-09-03T11:02:16.430Z,937.25
2022-09-03T11:03:16.377Z,932.47
2022-09-03T11:04:16.358Z,934.15
2022-09-03T11:05:16.363Z,934.04
2022-09-03T11:06:16.360Z,933.47
2022-09-03T11:07:16.361Z,934.69
2022-09-03T11:08:16.461Z,935.95
2022-09-03T11:09:16.388Z,936.53
2022-09-03T11:10:16.369Z,938.16
2022-09-03T11:11:16.373Z,940.19
2022-09-03T11:12:16.376Z,943.23
2022-09-03T11:13:16.391Z,947.24
2022-09-03T11:14:16.380Z,951.6
2022-09-03T11:15:16.377Z,956.15
2022-09-03T11:16:16.424Z,959.99
2022-09-03T11:17:16.383Z,963.35
2022-09-03T11:18:16.420Z,966.38
2022-09-03T11:19:16.385Z,969.85
2022-09-03T11:20:16.387Z,971.5
2022-09-03T11:21:16.395Z,973.85
2022-09-03T11:22:17.016Z,975.71
2022-09-03T11:23:16.412Z,976.81
2022-09-03T11:24:16.399Z,977.17
2022-09-03T11:25:16.395Z,977.23
2022-09-03T11:26:16.403Z,976.83
2022-09-03T11:27:16.405Z,976.19
2022-09-03T11:28:16.442Z,975.53
2022-09-03T11:29:16.404Z,974.61
2022-09-03T11:30:16.405Z,974.71
2022-09-03T11:31:16.501Z,974.87
2022-09-03T11:32:16.411Z,975.35
2022-09-03T11:33:16.432Z,975.94
2022-09-03T11:34:17.762Z,976.67
2022-09-03T11:35:16.419Z,976.7
2022-09-03T11:36:16.418Z,974.68
2022-09-03T11:37:16.423Z,972.35
2022-09-03T11:38:16.487Z,972.04
2022-09-03T11:39:16.424Z,970.51
2022-09-03T11:40:16.430Z,967.99
2022-09-03T11:41:16.430Z,964.43
2022-09-03T11:42:19.265Z,962.78
2022-09-03T11:43:16.447Z,959.67
2022-09-03T11:44:16.439Z,958.92
2022-09-03T11:45:16.435Z,959.44
2022-09-03T11:46:16.473Z,959.76
2022-09-03T11:47:16.444Z,960.28
2022-09-03T11:48:16.484Z,961.43
2022-09-03T11:49:16.442Z,963
2022-09-03T11:50:16.445Z,964.89
2022-09-03T11:51:16.445Z,967.43
2022-09-03T11:52:16.448Z,969.52
2022-09-03T11:53:16.529Z,970.29
2022-09-03T11:54:16.461Z,970.14
2022-09-03T11:55:16.465Z,968.03
2022-09-03T11:56:16.467Z,957.73
2022-09-03T11:57:16.468Z,949.82
2022-09-03T11:58:16.482Z,941.35
2022-09-03T11:59:16.461Z,934
2022-09-03T12:00:16.464Z,927.42
2022-09-03T12:01:16.577Z,920.35
2022-09-03T12:02:16.485Z,913.81
2022-09-03T12:03:16.515Z,907.31
2022-09-03T12:04:16.488Z,901.36
2022-09-03T12:05:16.474Z,896.35
2022-09-03T12:06:16.476Z,890.97
2022-09-03T12:07:17.538Z,886.94
2022-09-03T12:08:16.500Z,882.74
2022-09-03T12:09:16.482Z,878.88
2022-09-03T12:10:16.485Z,874.91
2022-09-03T12:11:16.481Z,871.79
2022-09-03T12:12:16.488Z,869.92
2022-09-03T12:13:16.556Z,869.35
2022-09-03T12:14:19.494Z,868.13
2022-09-03T12:15:16.493Z,868.02
2022-09-03T12:16:16.559Z,867.62